createdAt,value
2022-08-22T00:00:17.737Z,101604.06
2022-08-22T00:02:44.020Z,101638.03
2022-08-22T00:03:02.741Z,101591.44
2022-08-22T00:04:28.781Z,101602.16
2022-08-22T00:08:53.529Z,101593.78
2022-08-22T00:13:07.646Z,101603.72
2022-08-22T00:17:21.133Z,101600.78
2022-08-22T00:21:30.766Z,101600.34
2022-08-22T00:25:44.423Z,101616.16
2022-08-22T00:29:53.558Z,101605.72
2022-08-22T00:34:12.140Z,101610.50
2022-08-22T00:38:31.027Z,101613.22
2022-08-22T00:42:53.622Z,101611.34
2022-08-22T00:47:05.636Z,101611.91
2022-08-22T00:51:19.034Z,101618.56
2022-08-22T00:55:28.036Z,101611.69
2022-08-22T00:59:47.710Z,101615.59
2022-08-22T01:04:24.594Z,101606.66
2022-08-22T01:08:48.071Z,101609.75
2022-08-22T01:13:28.772Z,101610.81
2022-08-22T01:17:33.122Z,101610.19
2022-08-22T01:21:46.762Z,101614.72
2022-08-22T01:26:12.529Z,101608.25
2022-08-22T01:30:32.781Z,101614.88
2022-08-22T01:35:03.692Z,101604.28
2022-08-22T01:39:26.889Z,101617.53
2022-08-22T01:44:00.038Z,101618.19
2022-08-22T01:48:19.769Z,101625.63
2022-08-22T01:52:36.357Z,101622.94
2022-08-22T01:56:46.798Z,101621.25
2022-08-22T02:00:57.730Z,101623.34
2022-08-22T02:05:37.389Z,101624.56
2022-08-22T02:09:48.089Z,101620.00
2022-08-22T02:13:58.741Z,101614.59
2022-08-22T02:18:06.455Z,101613.75
2022-08-22T02:22:24.535Z,101612.47
2022-08-22T02:26:44.870Z,101611.63
2022-08-22T02:30:51.004Z,101608.50
2022-08-22T02:35:01.477Z,101599.53
2022-08-22T02:40:02.148Z,101598.50
2022-08-22T02:44:17.202Z,101587.03
2022-08-22T02:48:44.973Z,101591.81
2022-08-22T02:52:58.467Z,101598.91
2022-08-22T02:57:02.741Z,101599.94
2022-08-22T03:01:15.146Z,101597.22
2022-08-22T03:05:36.993Z,101592.88
2022-08-22T03:09:47.998Z,101576.66
2022-08-22T03:14:04.911Z,101580.75
2022-08-22T03:18:25.736Z,101570.34
2022-08-22T03:22:36.284Z,101570.53
2022-08-22T03:27:31.400Z,101558.25
2022-08-22T03:31:36.413Z,101557.97
2022-08-22T03:35:44.189Z,101552.31
2022-08-22T03:40:01.009Z,101558.94
2022-08-22T03:44:24.293Z,101548.72
2022-08-22T03:48:38.316Z,101540.16
2022-08-22T03:53:07.127Z,101539.72
2022-08-22T03:57:50.365Z,101553.97
2022-08-22T04:02:24.694Z,101551.69
2022-08-22T04:06:59.950Z,101558.47
2022-08-22T04:11:19.038Z,101552.47
2022-08-22T04:15:58.064Z,101559.06
2022-08-22T04:20:37.768Z,101559.28
2022-08-22T04:25:08.421Z,101561.97
2022-08-22T04:29:24.484Z,101568.41
2022-08-22T04:33:29.204Z,101569.25
2022-08-22T04:37:59.314Z,101573.16
2022-08-22T04:42:31.669Z,101579.59
2022-08-22T04:46:57.754Z,101569.34
2022-08-22T04:51:13.002Z,101576.81
2022-08-22T04:55:45.512Z,101569.94
2022-08-22T04:59:47.406Z,101581.31
2022-08-22T05:04:01.909Z,101589.59
2022-08-22T05:08:10.039Z,101588.75
2022-08-22T05:12:20.634Z,101596.00
2022-08-22T05:16:28.525Z,101599.38
2022-08-22T05:20:30.820Z,101592.94
2022-08-22T05:24:44.128Z,101596.28
2022-08-22T05:28:53.116Z,101599.63
2022-08-22T05:33:03.925Z,101610.44
2022-08-22T05:37:18.980Z,101617.53
2022-08-22T05:41:25.040Z,101601.94
2022-08-22T05:45:28.495Z,101606.31
2022-08-22T05:49:38.909Z,101610.72
2022-08-22T05:53:45.492Z,101618.41
2022-08-22T05:57:52.341Z,101613.66
2022-08-22T06:02:05.590Z,101619.25
2022-08-22T06:06:14.933Z,101622.97
2022-08-22T06:10:42.804Z,101627.53
2022-08-22T06:14:53.835Z,101621.75
2022-08-22T06:18:57.788Z,101615.97
2022-08-22T06:23:02.034Z,101616.63
2022-08-22T06:27:09.061Z,101626.09
2022-08-22T06:31:19.497Z,101627.91
2022-08-22T06:35:29.300Z,101625.34
2022-08-22T06:39:38.203Z,101625.91
2022-08-22T06:43:43.386Z,101630.34
2022-08-22T06:47:52.222Z,101622.53
2022-08-22T06:52:01.766Z,101624.47
2022-08-22T06:56:07.522Z,101623.28
2022-08-22T07:00:15.284Z,101622.72
2022-08-22T07:04:17.574Z,101626.16
2022-08-22T07:08:21.434Z,101624.53
2022-08-22T07:12:29.156Z,101605.59
2022-08-22T07:16:52.050Z,101603.34
2022-08-22T07:20:57.597Z,101588.44
2022-08-22T07:25:12.890Z,101585.13
2022-08-22T07:29:29.007Z,101579.75
2022-08-22T07:33:48.065Z,101575.22
2022-08-22T07:37:59.994Z,101573.59
2022-08-22T07:42:16.466Z,101582.34
2022-08-22T07:46:50.397Z,101586.56
2022-08-22T07:51:12.552Z,101585.34
2022-08-22T07:55:19.834Z,101587.44
2022-08-22T07:59:23.376Z,101589.53
2022-08-22T08:03:29.045Z,101587.69
2022-08-22T08:07:32.260Z,101594.16
2022-08-22T08:11:40.465Z,101597.91
2022-08-22T08:15:45.871Z,101604.38
2022-08-22T08:19:48.149Z,101606.25
2022-08-22T08:23:49.907Z,101594.97
2022-08-22T08:28:10.612Z,101597.22
2022-08-22T08:32:13.529Z,101598.50
2022-08-22T08:36:33.305Z,101586.56
2022-08-22T08:40:34.923Z,101588.22
2022-08-22T08:44:49.478Z,101589.03
2022-08-22T08:49:13.196Z,101580.63
2022-08-22T08:53:31.315Z,101573.09
2022-08-22T08:57:54.851Z,101573.03
2022-08-22T09:02:13.948Z,101574.06
2022-08-22T09:06:52.697Z,101580.06
2022-08-22T09:11:28.298Z,101574.63
2022-08-22T09:16:04.748Z,101573.16
2022-08-22T09:20:17.755Z,101567.91
2022-08-22T09:24:48.826Z,101560.38
2022-08-22T09:28:58.975Z,101561.16
2022-08-22T09:33:11.727Z,101569.47
2022-08-22T09:37:20.085Z,101562.28
2022-08-22T09:41:36.609Z,101561.72
2022-08-22T09:46:02.015Z,101552.47
2022-08-22T09:50:32.466Z,101554.75
2022-08-22T09:55:13.431Z,101552.22
2022-08-22T09:59:35.691Z,101539.78
2022-08-22T10:04:14.370Z,101545.41
2022-08-22T10:08:39.771Z,101544.03
2022-08-22T10:13:04.043Z,101532.94
2022-08-22T10:17:21.889Z,101528.03
2022-08-22T10:21:51.128Z,101531.22
2022-08-22T10:26:22.797Z,101530.75
2022-08-22T10:30:39.106Z,101539.56
2022-08-22T10:34:53.697Z,101531.19
2022-08-22T10:38:59.961Z,101527.78
2022-08-22T10:43:29.850Z,101519.63
2022-08-22T10:47:40.905Z,101532.34
2022-08-22T10:51:57.063Z,101524.81
2022-08-22T10:56:09.930Z,101522.66
2022-08-22T11:00:27.107Z,101529.44
2022-08-22T11:04:43.750Z,101529.22
2022-08-22T11:08:56.773Z,101533.16
2022-08-22T11:13:26.537Z,101525.03
2022-08-22T11:18:16.043Z,101542.41
2022-08-22T11:22:58.088Z,101534.66
2022-08-22T11:27:17.755Z,101532.19
2022-08-22T11:31:51.356Z,101530.66
2022-08-22T11:36:04.593Z,101526.91
2022-08-22T11:40:24.570Z,101521.09
2022-08-22T11:44:32.139Z,101525.22
2022-08-22T11:48:53.270Z,101529.09
2022-08-22T11:53:32.235Z,101517.28
2022-08-22T11:57:41.829Z,101520.38
2022-08-22T12:02:13.164Z,101513.25
2022-08-22T12:06:38.365Z,101506.75
2022-08-22T12:10:57.837Z,101513.63
2022-08-22T12:15:11.621Z,101511.28
2022-08-22T12:19:35.459Z,101511.84
2022-08-22T12:24:19.430Z,101504.03
2022-08-22T12:28:44.993Z,101504.84
2022-08-22T12:32:57.590Z,101498.56
2022-08-22T12:37:19.458Z,101493.13
2022-08-22T12:41:38.139Z,101485.41
2022-08-22T12:45:56.374Z,101481.66
2022-08-22T12:50:05.107Z,101479.56
2022-08-22T12:54:44.249Z,101473.97
2022-08-22T12:58:53.334Z,101477.19
2022-08-22T13:03:03.778Z,101467.44
2022-08-22T13:07:08.599Z,101461.50
2022-08-22T13:11:22.375Z,101461.84
2022-08-22T13:15:54.561Z,101466.34
2022-08-22T13:20:09.485Z,101453.44
2022-08-22T13:24:22.661Z,101455.06
2022-08-22T13:28:44.217Z,101453.66
2022-08-22T13:32:49.468Z,101460.28
2022-08-22T13:36:54.041Z,101454.56
2022-08-22T13:40:58.224Z,101440.56
2022-08-22T13:45:05.466Z,101440.09
2022-08-22T13:49:09.451Z,101432.75
2022-08-22T13:53:23.002Z,101430.13
2022-08-22T13:57:36.136Z,101429.41
2022-08-22T14:01:53.002Z,101429.75
2022-08-22T14:05:58.819Z,101436.13
2022-08-22T14:10:27.609Z,101426.28
2022-08-22T14:14:33.759Z,101419.88
2022-08-22T14:18:45.693Z,101422.34
2022-08-22T14:23:00.977Z,101419.38
2022-08-22T14:27:27.045Z,101413.53
2022-08-22T14:31:30.687Z,101408.09
2022-08-22T14:35:43.418Z,101412.69
2022-08-22T14:40:02.156Z,101413.63
2022-08-22T14:44:11.706Z,101408.84
2022-08-22T14:48:30.410Z,101398.59
2022-08-22T14:52:36.663Z,101400.91
2022-08-22T14:56:40.916Z,101394.47
2022-08-22T15:00:47.198Z,101398.94
2022-08-22T15:04:53.765Z,101394.63
2022-08-22T15:08:57.146Z,101396.38
2022-08-22T15:13:03.007Z,101397.28
2022-08-22T15:17:08.484Z,101392.50
2022-08-22T15:21:21.090Z,101392.09
2022-08-22T15:25:41.037Z,101383.72
2022-08-22T15:29:55.778Z,101377.91
2022-08-22T15:34:23.020Z,101373.91
2022-08-22T15:38:38.435Z,101369.41
2022-08-22T15:42:50.533Z,101367.31
2022-08-22T15:46:52.192Z,101372.19
2022-08-22T15:51:01.390Z,101365.56
2022-08-22T15:55:26.680Z,101359.22
2022-08-22T15:59:48.186Z,101355.84
2022-08-22T16:04:00.137Z,101346.00
2022-08-22T16:08:06.743Z,101339.31
2022-08-22T16:12:12.328Z,101334.84
2022-08-22T16:17:01.745Z,101332.56
2022-08-22T16:21:13.641Z,101325.72
2022-08-22T16:25:16.094Z,101325.06
2022-08-22T16:29:41.479Z,101324.06
2022-08-22T16:33:44.298Z,101322.66
2022-08-22T16:37:49.927Z,101323.75
2022-08-22T16:42:23.104Z,101319.94
2022-08-22T16:46:37.041Z,101323.81
2022-08-22T16:50:41.032Z,101329.06
2022-08-22T16:54:46.270Z,101329.38
2022-08-22T16:59:03.317Z,101328.56
2022-08-22T17:03:47.769Z,101320.69
2022-08-22T17:08:11.416Z,101329.44
2022-08-22T17:12:50.495Z,101327.53
2022-08-22T17:17:16.977Z,101331.63
2022-08-22T17:21:28.442Z,101331.53
2022-08-22T17:25:45.726Z,101332.00
2022-08-22T17:29:50.196Z,101333.09
2022-08-22T17:34:02.054Z,101325.56
2022-08-22T17:38:30.494Z,101331.69
2022-08-22T17:42:40.854Z,101331.75
2022-08-22T17:47:14.991Z,101328.53
2022-08-22T17:51:41.417Z,101330.63
2022-08-22T17:56:12.182Z,101334.25
2022-08-22T18:00:30.641Z,101336.28
2022-08-22T18:04:44.431Z,101340.72
2022-08-22T18:09:13.722Z,101336.69
2022-08-22T18:13:49.532Z,101339.81
2022-08-22T18:17:57.641Z,101352.41
2022-08-22T18:22:05.346Z,101352.03
2022-08-22T18:26:06.858Z,101355.63
2022-08-22T18:30:11.325Z,101355.38
2022-08-22T18:34:30.010Z,101364.63
2022-08-22T18:38:49.506Z,101360.25
2022-08-22T18:42:54.607Z,101367.00
2022-08-22T18:47:10.636Z,101371.53
2022-08-22T18:51:24.643Z,101361.69
2022-08-22T18:55:43.499Z,101369.00
2022-08-22T19:00:05.987Z,101374.56
2022-08-22T19:04:17.209Z,101371.09
2022-08-22T19:08:44.204Z,101374.72
2022-08-22T19:13:17.232Z,101378.38
2022-08-22T19:17:30.969Z,101379.31
2022-08-22T19:21:53.923Z,101381.88
2022-08-22T19:26:23.422Z,101384.44
2022-08-22T19:30:33.976Z,101388.06
2022-08-22T19:34:46.945Z,101382.94
2022-08-22T19:38:57.454Z,101377.78
2022-08-22T19:42:59.684Z,101371.84
2022-08-22T19:47:19.914Z,101383.03
2022-08-22T19:51:21.472Z,101371.00
2022-08-22T19:55:28.917Z,101369.41
2022-08-22T19:59:50.494Z,101371.38
2022-08-22T20:04:20.512Z,101365.16
2022-08-22T20:08:38.599Z,101365.84
2022-08-22T20:12:46.257Z,101366.75
2022-08-22T20:17:02.962Z,101369.72
2022-08-22T20:21:04.717Z,101376.50
2022-08-22T20:25:42.544Z,101366.50
2022-08-22T20:29:49.131Z,101373.66
2022-08-22T20:34:17.520Z,101363.69
2022-08-22T20:38:24.488Z,101371.44
2022-08-22T20:42:31.242Z,101362.69
2022-08-22T20:46:46.115Z,101369.16
2022-08-22T20:50:48.035Z,101372.94
2022-08-22T20:55:00.392Z,101366.06
2022-08-22T20:59:35.833Z,101366.28
2022-08-22T21:03:43.331Z,101351.03
2022-08-22T21:07:46.649Z,101358.59
2022-08-22T21:11:51.235Z,101362.56
2022-08-22T21:16:02.499Z,101354.03
2022-08-22T21:20:22.137Z,101355.09
2022-08-22T21:24:23.756Z,101354.03
2022-08-22T21:28:28.919Z,101355.09
2022-08-22T21:32:40.354Z,101355.91
2022-08-22T21:36:42.404Z,101349.66
2022-08-22T21:40:44.464Z,101345.28
2022-08-22T21:45:00.222Z,101347.19
2022-08-22T21:49:05.281Z,101351.75
2022-08-22T21:53:11.944Z,101345.09
2022-08-22T21:57:16.515Z,101354.13
2022-08-22T22:01:31.626Z,101349.16
2022-08-22T22:05:34.128Z,101348.13
2022-08-22T22:09:35.748Z,101350.44
2022-08-22T22:13:38.581Z,101352.75
2022-08-22T22:17:40.178Z,101352.56
2022-08-22T22:21:41.924Z,101352.16
2022-08-22T22:25:44.923Z,101345.50
2022-08-22T22:29:46.677Z,101350.78
2022-08-22T22:33:48.377Z,101349.31
2022-08-22T22:37:50.169Z,101353.53
2022-08-22T22:41:51.770Z,101365.63
2022-08-22T22:45:53.371Z,101353.13
2022-08-22T22:49:56.073Z,101357.09
2022-08-22T22:53:57.920Z,101362.75
2022-08-22T22:58:00.066Z,101351.25
2022-08-22T23:02:15.919Z,101355.03
2022-08-22T23:06:20.836Z,101363.00
2022-08-22T23:10:23.317Z,101367.56
2022-08-22T23:14:25.353Z,101358.59
2022-08-22T23:18:30.607Z,101358.00
2022-08-22T23:22:33.863Z,101348.41
2022-08-22T23:26:36.056Z,101346.38
2022-08-22T23:30:38.322Z,101339.72
2022-08-22T23:34:45.745Z,101342.44
2022-08-22T23:38:49.580Z,101342.84
2022-08-22T23:42:51.158Z,101343.31
2022-08-22T23:46:53.706Z,101341.03
2022-08-22T23:50:55.346Z,101344.78
2022-08-22T23:54:56.941Z,101339.78
2022-08-22T23:59:00.919Z,101345.63
